Time;durP1;ratioP1;P1;durP2;ratioP2;P2;SDS_P1;SDS_P2;PMS_P1;PMS_P2;Temp;Humidity;BMP_temperature;BMP_pressure;BME280_temperature;BME280_humidity;BME280_pressure;Samples;Min_cycle;Max_cycle;Signal;HPM_P1;HPM_P2
2020/12/23 00:01:35;;;;;;;116.82;33.13;;;;;;;4.26;100.00;98199.00;5052331;28;20493;-78
2020/12/23 00:04:06;;;;;;;123.15;33.20;;;;;;;4.31;100.00;98185.63;5069789;28;20031;-78
2020/12/23 00:06:35;;;;;;;119.90;32.67;;;;;;;4.26;100.00;98192.81;5072357;28;20047;-77
2020/12/23 00:09:05;;;;;;;125.35;33.28;;;;;;;4.20;100.00;98196.50;5055626;28;20356;-78
2020/12/23 00:11:31;;;;;;;127.95;33.50;;;;;;;4.11;100.00;98193.22;5056488;28;20100;-78
2020/12/23 00:13:57;;;;;;;130.82;33.63;;;;;;;4.18;100.00;98194.81;5056021;28;20039;-78
2020/12/23 00:16:23;;;;;;;129.68;31.63;;;;;;;4.10;100.00;98186.19;5056050;28;20024;-78
2020/12/23 00:18:49;;;;;;;127.10;32.05;;;;;;;4.11;100.00;98193.22;5073206;28;20044;-78
2020/12/23 00:21:14;;;;;;;121.68;32.33;;;;;;;4.08;100.00;98195.97;5064456;28;20052;-79
2020/12/23 00:23:40;;;;;;;144.25;32.17;;;;;;;4.06;100.00;98195.13;5036150;28;20480;-79
2020/12/23 00:26:11;;;;;;;135.85;30.70;;;;;;;4.02;100.00;98193.47;5035955;28;20476;-78
2020/12/23 00:28:37;;;;;;;137.05;31.65;;;;;;;4.06;100.00;98211.03;5036467;28;20049;-78
2020/12/23 00:31:04;;;;;;;130.18;30.17;;;;;;;4.02;100.00;98214.63;5049654;28;20043;-78
2020/12/23 00:33:29;;;;;;;107.78;26.75;;;;;;;3.99;100.00;98209.44;5037433;28;20132;-78
2020/12/23 00:35:55;;;;;;;126.90;26.83;;;;;;;3.97;100.00;98209.44;5059634;28;20060;-78
2020/12/23 00:38:21;;;;;;;139.60;29.77;;;;;;;3.91;100.00;98195.53;5059382;28;20023;-79
2020/12/23 00:40:47;;;;;;;136.65;28.35;;;;;;;3.88;100.00;98201.75;5058947;28;20023;-78
2020/12/23 00:43:12;;;;;;;119.57;29.10;;;;;;;3.93;100.00;98210.47;5059493;28;20118;-78
2020/12/23 00:45:38;;;;;;;127.03;29.38;;;;;;;3.84;100.00;98200.94;5077858;28;20107;-78
2020/12/23 00:48:04;;;;;;;129.50;30.35;;;;;;;3.89;100.00;98207.91;5094678;28;20123;-80
2020/12/23 00:50:30;;;;;;;130.85;29.67;;;;;;;3.87;100.00;98193.84;5099472;28;20524;-79
2020/12/23 00:52:56;;;;;;;172.35;36.95;;;;;;;3.87;100.00;98204.44;5100170;28;20015;-79
2020/12/23 00:55:21;;;;;;;157.45;35.95;;;;;;;3.78;100.00;98190.50;5090669;28;20027;-79
2020/12/23 00:57:47;;;;;;;134.23;33.47;;;;;;;3.97;100.00;98192.72;5098712;28;20023;-79
2020/12/23 01:00:13;;;;;;;129.60;31.23;;;;;;;4.03;100.00;98189.94;5097637;28;20031;-79
2020/12/23 01:02:38;;;;;;;126.70;30.95;;;;;;;4.00;100.00;98184.72;5098985;28;20598;-78
2020/12/23 01:05:04;;;;;;;147.70;34.53;;;;;;;4.08;100.00;98190.66;5099030;28;20409;-78
2020/12/23 01:07:30;;;;;;;121.63;32.42;;;;;;;4.16;100.00;98183.38;5098127;28;20034;-79
2020/12/23 01:09:55;;;;;;;135.18;30.92;;;;;;;4.19;100.00;98184.16;5079942;28;20023;-79
2020/12/23 01:12:21;;;;;;;146.00;34.10;;;;;;;4.23;100.00;98198.19;5078293;28;20441;-79
2020/12/23 01:14:47;;;;;;;149.90;34.97;;;;;;;4.20;100.00;98188.56;5096087;28;20059;-79
2020/12/23 01:17:14;;;;;;;155.20;37.13;;;;;;;4.23;100.00;98196.44;5086141;28;20019;-78
2020/12/23 01:19:40;;;;;;;147.63;35.63;;;;;;;4.11;100.00;98180.00;5079030;28;20046;-79
2020/12/23 01:22:07;;;;;;;148.05;38.15;;;;;;;4.16;100.00;98191.31;5078923;28;20482;-78
2020/12/23 01:24:32;;;;;;;164.02;36.10;;;;;;;3.96;100.00;98161.88;5079047;28;20034;-79
2020/12/23 01:27:16;;;;;;;164.90;34.85;;;;;;;4.10;100.00;98180.91;5079060;28;20114;-79
2020/12/23 01:29:42;;;;;;;166.80;36.90;;;;;;;4.15;100.00;98181.66;5095818;28;20544;-79
2020/12/23 01:32:09;;;;;;;163.95;35.17;;;;;;;4.12;100.00;98187.88;5077731;28;20023;-79
2020/12/23 01:34:34;;;;;;;148.60;32.63;;;;;;;4.15;100.00;98186.97;5077354;28;20054;-79
2020/12/23 01:37:00;;;;;;;152.98;31.55;;;;;;;4.14;100.00;98190.50;5094348;28;20051;-79
2020/12/23 01:39:25;;;;;;;161.98;33.13;;;;;;;4.07;100.00;98180.97;5094617;28;20546;-81
2020/12/23 01:41:58;;;;;;;161.43;34.13;;;;;;;4.13;100.00;98176.38;5097275;28;20019;-80
2020/12/23 01:44:24;;;;;;;147.18;32.95;;;;;;;4.20;100.00;98177.97;5097562;28;20019;-79
2020/12/23 01:46:50;;;;;;;162.05;33.17;;;;;;;4.16;100.00;98175.44;5097704;28;20020;-79
2020/12/23 01:49:17;;;;;;;147.52;32.30;;;;;;;4.19;100.00;98154.19;5098834;28;20019;-79
2020/12/23 01:51:43;;;;;;;149.38;33.47;;;;;;;4.40;100.00;98155.41;5098083;28;20031;-79
2020/12/23 01:54:12;;;;;;;141.60;33.03;;;;;;;4.48;100.00;98159.56;5099560;28;20019;-78
2020/12/23 01:56:41;;;;;;;172.27;32.88;;;;;;;4.47;100.00;98155.16;5099522;28;20079;-79
2020/12/23 01:59:07;;;;;;;156.90;33.13;;;;;;;4.43;100.00;98140.25;5083844;28;20031;-78
2020/12/23 02:01:36;;;;;;;149.68;31.67;;;;;;;4.42;100.00;98150.91;5093842;28;20020;-79
2020/12/23 02:04:01;;;;;;;177.98;36.90;;;;;;;4.32;100.00;98166.19;5081517;28;20023;-78
2020/12/23 02:06:27;;;;;;;206.82;38.15;;;;;;;4.10;100.00;98159.72;5098444;27;20033;-78
2020/12/23 02:08:54;;;;;;;176.98;36.80;;;;;;;4.00;100.00;98152.94;5117840;27;20054;-78
2020/12/23 02:11:19;;;;;;;195.63;36.08;;;;;;;3.91;100.00;98153.19;5101185;27;20053;-76
2020/12/23 02:13:45;;;;;;;171.25;34.22;;;;;;;4.06;100.00;98152.78;5101560;27;20046;-78
2020/12/23 02:16:12;;;;;;;173.07;35.13;;;;;;;4.03;100.00;98158.16;5087027;28;20080;-78
2020/12/23 02:18:39;;;;;;;184.88;36.95;;;;;;;4.10;100.00;98154.41;5080398;28;20109;-79
2020/12/23 02:21:04;;;;;;;179.30;36.13;;;;;;;4.22;100.00;98144.38;5080740;28;20086;-78
2020/12/23 02:23:30;;;;;;;181.98;35.20;;;;;;;4.42;100.00;98142.97;5114783;27;20027;-78
2020/12/23 02:25:57;;;;;;;164.18;37.17;;;;;;;4.40;100.00;98144.81;5100823;27;20562;-78
2020/12/23 02:28:22;;;;;;;181.60;36.17;;;;;;;4.16;100.00;98133.09;5100549;27;20027;-78
2020/12/23 02:30:49;;;;;;;203.70;39.50;;;;;;;4.18;100.00;98123.34;5081805;28;20037;-78
2020/12/23 02:33:15;;;;;;;196.32;37.17;;;;;;;4.18;100.00;98120.69;5081519;28;20482;-78
2020/12/23 02:35:41;;;;;;;178.68;37.53;;;;;;;4.16;100.00;98126.00;5081469;28;20196;-79
2020/12/23 02:38:07;;;;;;;197.07;35.47;;;;;;;4.09;100.00;98121.78;5086644;27;20110;-79
2020/12/23 02:40:33;;;;;;;171.68;34.80;;;;;;;4.18;100.00;98110.94;5118846;27;20499;-79
2020/12/23 02:42:58;;;;;;;185.55;35.90;;;;;;;4.23;100.00;98124.06;5101528;27;20026;-79
2020/12/23 02:45:24;;;;;;;191.10;36.80;;;;;;;4.16;100.00;98120.72;5100474;27;20046;-80
2020/12/23 02:47:50;;;;;;;231.55;41.20;;;;;;;3.94;100.00;98122.19;5118210;27;20030;-79
2020/12/23 02:50:15;;;;;;;157.98;37.05;;;;;;;4.07;100.00;98126.25;5095458;28;20027;-79
2020/12/23 02:52:41;;;;;;;147.57;33.38;;;;;;;4.12;100.00;98134.09;5080011;28;20020;-80
2020/12/23 02:55:07;;;;;;;161.50;36.08;;;;;;;4.16;100.00;98127.78;5080205;28;20019;-80
2020/12/23 02:57:32;;;;;;;166.77;36.80;;;;;;;4.32;100.00;98129.97;5096616;27;20031;-79
2020/12/23 02:59:58;;;;;;;153.43;36.20;;;;;;;4.27;100.00;98125.72;5080473;28;20032;-79
2020/12/23 03:02:23;;;;;;;142.50;37.58;;;;;;;4.35;100.00;98123.72;5087999;28;20019;-80
2020/12/23 03:04:49;;;;;;;166.07;40.03;;;;;;;4.27;100.00;98121.31;5079728;28;20088;-80
2020/12/23 03:07:15;;;;;;;154.98;39.28;;;;;;;4.23;100.00;98118.78;5084914;27;20023;-79
2020/12/23 03:09:40;;;;;;;162.77;39.45;;;;;;;4.11;100.00;98112.03;5082886;28;20460;-80
2020/12/23 03:12:06;;;;;;;157.10;38.88;;;;;;;4.17;100.00;98125.13;5088055;28;20015;-80
2020/12/23 03:14:31;;;;;;;156.05;35.22;;;;;;;4.07;100.00;98128.91;5081030;28;20084;-79
2020/12/23 03:16:57;;;;;;;149.45;35.67;;;;;;;4.06;100.00;98126.31;5096608;28;20027;-79
2020/12/23 03:19:23;;;;;;;161.50;37.65;;;;;;;4.05;100.00;98122.81;5085005;27;20114;-79
2020/12/23 03:21:48;;;;;;;145.07;36.58;;;;;;;4.11;100.00;98127.06;5100124;27;20535;-80
2020/12/23 03:24:14;;;;;;;156.95;37.58;;;;;;;4.14;100.00;98137.56;5086703;28;20486;-79
2020/12/23 03:26:39;;;;;;;146.15;35.85;;;;;;;4.00;100.00;98132.63;5079312;28;20096;-79
2020/12/23 03:29:05;;;;;;;157.25;35.17;;;;;;;3.94;100.00;98142.53;5079458;28;20168;-79
2020/12/23 03:31:32;;;;;;;133.35;31.45;;;;;;;3.97;100.00;98153.03;5097704;28;20028;-79
2020/12/23 03:33:57;;;;;;;114.80;29.40;;;;;;;3.88;100.00;98151.47;5079926;28;20051;-79
2020/12/23 03:36:23;;;;;;;118.40;30.67;;;;;;;3.92;100.00;98147.84;5079125;28;20065;-79
2020/12/23 03:38:50;;;;;;;124.78;32.85;;;;;;;3.92;100.00;98153.13;5080018;28;20031;-80
2020/12/23 03:41:16;;;;;;;134.00;33.92;;;;;;;4.01;100.00;98157.31;5079682;28;20033;-80
2020/12/23 03:43:41;;;;;;;125.90;30.40;;;;;;;4.12;100.00;98156.13;5095482;27;20027;-79
2020/12/23 03:46:07;;;;;;;106.63;29.25;;;;;;;4.25;100.00;98154.00;5116152;27;20023;-79
2020/12/23 03:48:33;;;;;;;135.68;30.23;;;;;;;4.15;100.00;98147.25;5092528;28;20406;-79
2020/12/23 03:50:59;;;;;;;132.90;32.53;;;;;;;4.32;100.00;98152.94;5104720;28;20077;-79
2020/12/23 03:53:25;;;;;;;125.97;30.73;;;;;;;4.38;100.00;98152.78;5079716;28;20031;-79
2020/12/23 03:55:51;;;;;;;147.40;32.88;;;;;;;4.15;100.00;98158.69;5079118;28;20053;-79
2020/12/23 03:58:16;;;;;;;143.35;31.73;;;;;;;4.13;100.00;98149.03;5082989;27;20118;-79
2020/12/23 04:00:42;;;;;;;146.73;35.30;;;;;;;4.12;100.00;98155.28;5091749;28;20027;-78
2020/12/23 04:03:08;;;;;;;158.88;35.05;;;;;;;4.14;100.00;98154.31;5091466;27;20034;-79
2020/12/23 04:05:34;;;;;;;152.05;33.88;;;;;;;4.12;100.00;98147.34;5100055;27;20034;-78
2020/12/23 04:07:59;;;;;;;151.35;35.70;;;;;;;4.11;100.00;98145.59;5081286;28;20486;-79
2020/12/23 04:10:25;;;;;;;130.05;32.60;;;;;;;4.21;100.00;98149.72;5079253;28;20035;-78
2020/12/23 04:12:50;;;;;;;124.82;31.75;;;;;;;4.28;100.00;98130.97;5078788;27;20023;-78
2020/12/23 04:15:16;;;;;;;125.15;31.52;;;;;;;4.47;100.00;98139.28;5098612;27;20498;-78
2020/12/23 04:17:42;;;;;;;133.30;33.03;;;;;;;4.47;100.00;98146.34;5099210;27;20493;-78
2020/12/23 04:20:08;;;;;;;154.10;33.78;;;;;;;4.28;100.00;98138.03;5098401;27;20401;-78
2020/12/23 04:22:34;;;;;;;161.50;33.47;;;;;;;4.24;100.00;98152.28;5109289;28;20044;-78
2020/12/23 04:25:01;;;;;;;171.93;36.35;;;;;;;4.11;100.00;98142.94;5077806;28;20045;-79
2020/12/23 04:27:28;;;;;;;157.80;35.63;;;;;;;4.11;100.00;98143.81;5078444;28;20020;-78
2020/12/23 04:29:54;;;;;;;171.65;37.25;;;;;;;4.05;100.00;98143.97;5077227;28;20028;-78
2020/12/23 04:32:20;;;;;;;155.93;35.17;;;;;;;4.15;100.00;98141.94;5078098;28;20483;-78
2020/12/23 04:34:45;;;;;;;166.00;37.10;;;;;;;4.12;100.00;98137.59;5078303;28;20081;-78
2020/12/23 04:37:11;;;;;;;174.75;36.30;;;;;;;4.19;100.00;98144.47;5080668;27;20027;-79
2020/12/23 04:39:37;;;;;;;162.00;36.50;;;;;;;4.10;100.00;98133.25;5105599;27;20027;-79
2020/12/23 04:42:03;;;;;;;169.75;35.00;;;;;;;4.07;100.00;98135.97;5122379;27;20031;-78
2020/12/23 04:44:30;;;;;;;161.20;33.47;;;;;;;4.05;100.00;98135.16;5135378;27;20019;-79
2020/12/23 04:46:57;;;;;;;145.63;33.67;;;;;;;4.24;100.00;98144.34;5089826;28;20027;-80
2020/12/23 04:49:22;;;;;;;152.18;35.65;;;;;;;4.02;100.00;98133.47;5078978;28;20034;-79
2020/12/23 04:51:53;;;;;;;179.95;37.97;;;;;;;4.27;100.00;98144.28;5086059;28;20023;-79
2020/12/23 04:54:18;;;;;;;166.88;39.10;;;;;;;4.32;100.00;98148.53;5098516;28;20088;-79
2020/12/23 04:56:44;;;;;;;150.00;36.22;;;;;;;4.32;100.00;98135.28;5098679;28;20023;-80
2020/12/23 04:59:10;;;;;;;164.23;37.47;;;;;;;4.34;100.00;98129.94;5116758;28;20030;-80
2020/12/23 05:01:35;;;;;;;189.00;48.67;;;;;;;4.38;100.00;98143.06;5116465;28;20102;-80
2020/12/23 05:04:03;;;;;;;180.25;47.25;;;;;;;4.21;100.00;98124.13;5118957;28;20413;-80
2020/12/23 05:06:29;;;;;;;194.98;46.47;;;;;;;4.21;100.00;98117.97;5109907;28;20023;-80
2020/12/23 05:08:54;;;;;;;168.65;46.03;;;;;;;4.43;100.00;98132.31;5107229;28;20027;-80
2020/12/23 05:11:22;;;;;;;168.68;47.28;;;;;;;4.47;100.00;98135.75;5102923;28;20023;-80
2020/12/23 05:13:48;;;;;;;205.90;56.92;;;;;;;4.16;100.00;98118.06;5091386;28;20122;-80
2020/12/23 05:16:21;;;;;;;207.27;56.78;;;;;;;4.31;100.00;98136.19;5118051;28;20056;-80
2020/12/23 05:18:47;;;;;;;177.05;49.67;;;;;;;4.38;100.00;98144.81;5077967;28;20035;-80
2020/12/23 05:21:15;;;;;;;188.70;49.08;;;;;;;4.30;100.00;98130.94;5094439;28;20031;-80
2020/12/23 05:23:48;;;;;;;144.23;39.45;;;;;;;4.45;100.00;98141.09;5084559;28;20027;-80
2020/12/23 05:26:15;;;;;;;152.70;42.63;;;;;;;4.22;100.00;98138.22;5098497;28;20459;-80
2020/12/23 05:28:42;;;;;;;156.98;40.22;;;;;;;4.19;100.00;98127.69;5098631;28;20030;-80
2020/12/23 05:31:15;;;;;;;217.52;76.60;;;;;;;4.27;100.00;98136.31;5097233;28;20020;-81
2020/12/23 05:33:43;;;;;;;149.63;45.63;;;;;;;4.19;100.00;98143.59;5086628;28;20218;-81
2020/12/23 05:36:15;;;;;;;140.18;33.28;;;;;;;4.31;100.00;98138.81;5094925;28;20402;-81
2020/12/23 05:38:41;;;;;;;;;;;;;;;4.32;100.00;98158.25;5078870;28;20030;-80
2020/12/23 05:41:11;;;;;;;132.88;37.67;;;;;;;4.20;100.00;98142.69;5097349;27;19908;-81
2020/12/23 05:43:37;;;;;;;147.85;38.80;;;;;;;4.28;100.00;98140.69;5102446;27;20069;-80
2020/12/23 05:46:04;;;;;;;165.27;40.70;;;;;;;4.16;100.00;98154.25;5085972;28;20092;-80
2020/12/23 05:48:31;;;;;;;149.13;42.50;;;;;;;4.18;100.00;98158.59;5062235;28;20512;-80
2020/12/23 05:50:57;;;;;;;133.10;36.85;;;;;;;4.26;100.00;98155.75;5061846;28;20032;-81
2020/12/23 05:53:27;;;;;;;121.40;36.03;;;;;;;4.28;100.00;98162.75;5085028;27;20031;-79
2020/12/23 05:55:52;;;;;;;113.13;35.97;;;;;;;4.28;100.00;98165.38;5103287;27;20534;-80
2020/12/23 05:58:24;;;;;;;100.57;31.65;;;;;;;4.28;100.00;98175.97;5101933;27;20023;-80
2020/12/23 06:00:54;;;;;;;103.38;32.78;;;;;;;4.25;100.00;98178.72;5137076;27;20095;-80
2020/12/23 06:03:25;;;;;;;90.22;30.33;;;;;;;4.35;100.00;98177.56;5092035;28;20455;-80
2020/12/23 06:06:00;;;;;;;90.27;29.93;;;;;;;4.18;100.00;98165.69;5113164;27;20478;-80
2020/12/23 06:08:33;;;;;;;88.63;30.23;;;;;;;4.29;100.00;98176.84;5101218;27;20794;-80
2020/12/23 06:11:17;;;;;;;110.18;37.75;;;;;;;4.34;100.00;98173.16;5093679;28;20030;-80
2020/12/23 06:14:15;;;;;;;84.03;32.10;;;;;;;4.47;100.00;98180.78;5097820;28;20026;-79
2020/12/23 06:16:45;;;;;;;81.97;30.35;;;;;;;4.38;100.00;98182.78;5063518;28;20032;-80
2020/12/23 06:19:22;;;;;;;75.82;27.20;;;;;;;4.50;100.00;98180.69;5115984;28;20023;-80
2020/12/23 06:21:49;;;;;;;76.03;25.67;;;;;;;4.44;100.00;98181.72;5080989;28;20403;-80
2020/12/23 06:24:15;;;;;;;79.95;30.45;;;;;;;4.38;100.00;98184.56;5081489;28;20436;-80
2020/12/23 06:26:46;;;;;;;78.88;29.73;;;;;;;4.45;100.00;98188.78;5093970;27;20031;-80
2020/12/23 06:29:14;;;;;;;80.90;32.80;;;;;;;4.43;100.00;98181.78;5102078;27;20404;-80
2020/12/23 06:31:49;;;;;;;128.20;42.38;;;;;;;4.42;100.00;98188.00;5088581;28;20039;-78
2020/12/23 06:34:17;;;;;;;122.72;42.70;;;;;;;4.41;100.00;98197.72;5098835;27;20055;-79
2020/12/23 06:36:44;;;;;;;118.68;40.88;;;;;;;4.42;100.00;98203.88;5096830;28;20209;-78
2020/12/23 06:39:19;;;;;;;112.55;37.13;;;;;;;4.51;100.00;98198.31;5106346;28;20024;-79
2020/12/23 06:41:45;;;;;;;99.60;33.10;;;;;;;4.54;100.00;98204.41;5097764;28;20027;-79
2020/12/23 06:44:11;;;;;;;107.75;34.30;;;;;;;4.65;100.00;98197.03;5082186;28;20084;-79
2020/12/23 06:46:59;;;;;;;95.22;34.13;;;;;;;4.76;100.00;98205.56;5077647;28;20032;-80
2020/12/23 06:49:42;;;;;;;92.93;33.90;;;;;;;4.81;100.00;98203.63;5105439;27;20038;-80
2020/12/23 06:52:29;;;;;;;89.68;34.03;;;;;;;4.87;100.00;98213.19;5086825;27;20023;-82
2020/12/23 06:55:01;;;;;;;92.88;35.35;;;;;;;5.00;100.00;98216.34;5108750;27;20019;-79
2020/12/23 06:57:35;;;;;;;112.22;38.78;;;;;;;4.84;100.00;98216.81;5099290;28;20028;-80
2020/12/23 07:00:11;;;;;;;101.88;38.15;;;;;;;4.91;100.00;98202.47;5097035;28;20032;-81
2020/12/23 07:02:57;;;;;;;194.60;85.22;;;;;;;4.97;100.00;98211.16;5080362;28;20034;-79
2020/12/23 07:05:22;;;;;;;128.68;50.72;;;;;;;4.96;100.00;98209.41;5096418;27;20038;-77
2020/12/23 07:07:53;;;;;;;145.05;55.85;;;;;;;4.97;100.00;98208.50;5096525;28;20414;-79
2020/12/23 07:10:20;;;;;;;208.57;80.97;;;;;;;4.96;100.00;98212.03;5080050;28;20119;-79
2020/12/23 07:12:53;;;;;;;159.77;55.50;;;;;;;4.82;100.00;98210.69;5079730;28;20035;-76
2020/12/23 07:15:22;;;;;;;140.55;49.38;;;;;;;4.90;100.00;98203.38;5096321;28;20023;-78
2020/12/23 07:17:54;;;;;;;148.52;53.17;;;;;;;4.83;100.00;98201.81;5080051;28;20027;-76
2020/12/23 07:20:24;;;;;;;153.25;57.63;;;;;;;4.93;100.00;98205.06;5080340;28;20027;-83
2020/12/23 07:22:52;;;;;;;167.30;55.38;;;;;;;4.93;100.00;98195.34;5080154;28;20566;-80
2020/12/23 07:25:23;;;;;;;194.75;68.10;;;;;;;4.84;100.00;98200.91;5094830;27;20023;-80
2020/12/23 07:27:55;;;;;;;227.65;92.95;;;;;;;5.14;100.00;98201.78;5090040;27;20034;-80
2020/12/23 07:30:21;;;;;;;208.55;85.45;;;;;;;5.00;100.00;98208.41;5086853;28;20084;-82
2020/12/23 07:33:04;;;;;;;222.95;88.88;;;;;;;5.15;100.00;98211.47;5089839;27;20027;-81
2020/12/23 07:35:30;;;;;;;226.15;91.53;;;;;;;5.15;100.00;98219.44;5106888;28;20054;-80
2020/12/23 07:38:02;;;;;;;216.05;90.22;;;;;;;5.22;100.00;98214.81;5083196;28;20434;-80
2020/12/23 07:40:28;;;;;;;217.80;92.43;;;;;;;5.23;100.00;98221.88;5100718;27;20069;-80
2020/12/23 07:43:06;;;;;;;167.38;73.70;;;;;;;5.18;100.00;98218.47;5096226;28;20058;-78
2020/12/23 07:45:35;;;;;;;169.63;64.15;;;;;;;5.13;100.00;98226.56;5084294;28;20067;-80
2020/12/23 07:48:20;;;;;;;167.68;70.22;;;;;;;4.86;100.00;98240.63;5100903;27;20031;-81
2020/12/23 07:50:47;;;;;;;130.77;50.42;;;;;;;4.91;100.00;98212.19;5099816;27;20030;-79
2020/12/23 07:53:24;;;;;;;131.50;50.55;;;;;;;5.01;100.00;98234.88;5117697;27;20022;-80
2020/12/23 07:56:01;;;;;;;162.13;59.13;;;;;;;5.03;100.00;98229.53;5097109;27;20054;-76
2020/12/23 07:58:28;;;;;;;117.90;45.17;;;;;;;5.22;100.00;98225.41;5083958;27;20095;-80
2020/12/23 08:00:54;;;;;;;117.43;42.83;;;;;;;5.05;100.00;98222.38;5092132;28;20660;-76
2020/12/23 08:03:35;;;;;;;113.50;42.38;;;;;;;4.84;100.00;98214.16;5098825;27;20122;-78
2020/12/23 08:06:09;;;;;;;115.47;46.83;;;;;;;5.22;100.00;98236.03;5099193;27;20023;-81
2020/12/23 08:08:36;;;;;;;111.53;48.08;;;;;;;5.08;100.00;98201.09;5100704;27;20052;-84
2020/12/23 08:11:09;;;;;;;117.63;48.20;;;;;;;5.29;100.00;98211.91;5108416;28;20020;-82
2020/12/23 08:13:35;;;;;;;121.45;49.22;;;;;;;5.53;100.00;98231.53;5096457;27;20035;-80
2020/12/23 08:16:10;;;;;;;138.80;52.65;;;;;;;5.41;100.00;98231.91;5100089;27;20019;-80
2020/12/23 08:18:37;;;;;;;134.77;59.55;;;;;;;5.65;100.00;98225.84;5085958;28;20027;-79
2020/12/23 08:21:18;;;;;;;104.82;43.05;;;;;;;5.67;100.00;98237.28;5077992;28;20395;-79
2020/12/23 08:23:48;;;;;;;111.45;46.00;;;;;;;5.89;100.00;98235.72;5078107;28;20032;-82
2020/12/23 08:26:14;;;;;;;118.47;47.00;;;;;;;5.83;100.00;98238.53;5103657;27;20023;-79
2020/12/23 08:28:42;;;;;;;112.85;45.50;;;;;;;5.75;100.00;98229.91;5097532;27;20063;-80
2020/12/23 08:31:12;;;;;;;112.78;43.35;;;;;;;5.86;100.00;98237.59;5099400;28;20032;-80
2020/12/23 08:33:40;;;;;;;121.75;48.60;;;;;;;5.95;100.00;98243.47;5069250;28;20055;-81
2020/12/23 08:36:06;;;;;;;118.53;46.15;;;;;;;5.82;100.00;98233.25;5089467;27;20042;-80
2020/12/23 08:38:32;;;;;;;125.40;49.97;;;;;;;5.87;100.00;98216.31;5108360;28;20472;-80
2020/12/23 08:40:59;;;;;;;110.93;48.00;;;;;;;5.87;100.00;98226.94;5093220;27;20035;-79
2020/12/23 08:43:30;;;;;;;133.93;53.20;;;;;;;5.87;100.00;98216.31;5097628;27;20027;-80
2020/12/23 08:46:00;;;;;;;122.35;52.80;;;;;;;6.24;100.00;98207.13;5112912;27;20409;-78
2020/12/23 08:48:27;;;;;;;112.63;48.70;;;;;;;6.49;99.12;98198.22;5091457;28;20063;-78
2020/12/23 08:51:03;;;;;;;126.40;50.42;;;;;;;6.79;99.26;98193.63;5076757;28;20517;-79
2020/12/23 08:53:34;;;;;;;119.85;51.70;;;;;;;7.01;97.32;98178.59;5078226;28;20461;-78
2020/12/23 08:56:00;;;;;;;112.75;48.25;;;;;;;7.30;95.75;98184.59;5087200;28;20399;-78
2020/12/23 08:58:26;;;;;;;125.55;54.83;;;;;;;7.16;96.67;98173.63;5097487;28;20027;-78
2020/12/23 09:01:01;;;;;;;137.63;61.28;;;;;;;6.90;98.07;98171.94;5086910;28;20060;-78
2020/12/23 09:03:27;;;;;;;147.98;62.25;;;;;;;7.91;100.00;98183.00;5084439;28;20518;-78
2020/12/23 09:05:56;;;;;;;129.80;56.95;;;;;;;8.61;90.18;98170.25;5077785;28;20027;-80
2020/12/23 09:08:28;;;;;;;128.90;58.75;;;;;;;9.02;87.38;98166.59;5057808;28;20032;-80
2020/12/23 09:10:55;;;;;;;125.38;56.28;;;;;;;8.67;90.05;98173.50;5071729;28;20091;-80
2020/12/23 09:13:32;;;;;;;182.40;78.50;;;;;;;8.44;90.46;98163.00;5077664;28;20027;-81
2020/12/23 09:15:59;;;;;;;161.77;68.55;;;;;;;8.24;92.44;98176.28;5096562;28;20032;-81
2020/12/23 09:18:24;;;;;;;116.55;50.00;;;;;;;7.93;93.26;98171.38;5082025;28;20167;-80
2020/12/23 09:21:01;;;;;;;138.40;53.45;;;;;;;7.80;97.01;98163.94;5097347;27;20070;-83
2020/12/23 09:23:27;;;;;;;104.93;41.60;;;;;;;7.67;94.95;98144.94;5098655;28;20063;-81
2020/12/23 09:25:53;;;;;;;112.03;44.08;;;;;;;7.86;96.58;98159.25;5081824;28;20032;-82
2020/12/23 09:28:20;;;;;;;113.15;45.13;;;;;;;8.03;95.73;98158.53;5082182;28;20023;-80
2020/12/23 09:30:48;;;;;;;115.40;44.38;;;;;;;8.13;95.70;98155.41;5114394;27;20023;-80
2020/12/23 09:33:18;;;;;;;104.63;44.50;;;;;;;8.81;92.11;98140.88;5090849;28;20031;-80
2020/12/23 09:35:46;;;;;;;125.90;53.63;;;;;;;9.04;88.10;98138.06;5058415;28;20145;-78
2020/12/23 09:38:27;;;;;;;146.00;61.55;;;;;;;9.27;87.85;98140.50;5056435;28;20040;-80
2020/12/23 09:40:57;;;;;;;147.13;65.78;;;;;;;9.41;86.54;98142.53;5057434;28;20118;-80
2020/12/23 09:43:28;;;;;;;134.43;60.88;;;;;;;9.45;86.77;98133.41;5057119;28;20403;-80
2020/12/23 09:45:55;;;;;;;161.18;72.07;;;;;;;8.90;87.62;98135.13;5057362;28;20128;-80
2020/12/23 09:48:22;;;;;;;170.52;76.93;;;;;;;8.74;90.71;98117.25;5073963;28;20028;-80
2020/12/23 09:50:48;;;;;;;153.07;71.93;;;;;;;9.20;89.21;98112.34;5057498;28;20025;-80
2020/12/23 09:53:14;;;;;;;177.95;87.40;;;;;;;9.33;87.79;98111.75;5057293;28;20032;-80
2020/12/23 09:55:43;;;;;;;197.07;96.95;;;;;;;9.36;89.37;98104.47;5057228;28;20105;-80
2020/12/23 09:58:10;;;;;;;204.98;97.82;;;;;;;9.67;87.61;98101.19;5056991;28;20051;-80
2020/12/23 10:00:36;;;;;;;226.57;107.07;;;;;;;10.13;84.81;98111.31;5074119;28;20036;-80
2020/12/23 10:03:01;;;;;;;183.85;89.72;;;;;;;10.83;79.91;98108.47;5074156;28;20020;-80
2020/12/23 10:05:29;;;;;;;203.73;103.20;;;;;;;11.56;79.85;98099.06;5074030;28;20043;-80
2020/12/23 10:07:54;;;;;;;201.85;104.68;;;;;;;12.62;72.80;98087.34;5056872;28;20443;-81
2020/12/23 10:10:20;;;;;;;177.07;92.30;;;;;;;12.59;73.13;98092.03;5057452;28;20082;-80
2020/12/23 10:12:46;;;;;;;192.02;97.45;;;;;;;13.56;68.81;98092.13;5057664;28;20111;-80
2020/12/23 10:15:12;;;;;;;188.90;103.50;;;;;;;14.36;65.77;98086.72;5056633;28;20095;-80
2020/12/23 10:17:37;;;;;;;177.73;97.63;;;;;;;15.13;63.52;98096.56;5056315;28;20102;-79
2020/12/23 10:20:05;;;;;;;172.07;92.60;;;;;;;16.48;58.63;98090.00;5056383;28;20123;-81
2020/12/23 10:22:30;;;;;;;218.73;116.65;;;;;;;16.21;57.87;98097.53;5056798;28;20029;-80
2020/12/23 10:24:56;;;;;;;221.45;119.38;;;;;;;16.64;55.54;98095.13;5074047;28;20153;-80
2020/12/23 10:27:22;;;;;;;226.13;125.65;;;;;;;16.28;56.03;98098.75;5055799;28;20046;-80
2020/12/23 10:29:47;;;;;;;204.25;120.30;;;;;;;15.67;58.56;98092.56;5056843;28;20595;-80
2020/12/23 10:32:13;;;;;;;181.38;98.65;;;;;;;15.91;59.56;98080.91;5057063;28;20040;-80
2020/12/23 10:34:40;;;;;;;136.50;72.15;;;;;;;16.41;56.59;98083.34;5057123;28;20059;-80
2020/12/23 10:37:05;;;;;;;139.55;70.20;;;;;;;16.49;55.85;98082.78;5056292;28;20466;-81
2020/12/23 10:39:31;;;;;;;120.97;62.05;;;;;;;16.50;57.77;98077.25;5056205;28;20036;-80
2020/12/23 10:41:57;;;;;;;104.55;54.70;;;;;;;18.12;53.09;98082.19;5057032;28;20447;-81
2020/12/23 10:44:23;;;;;;;113.25;58.58;;;;;;;18.77;49.62;98098.25;5066730;28;20036;-81
2020/12/23 10:46:56;;;;;;;115.45;64.50;;;;;;;18.52;50.86;98085.13;5056628;28;20028;-81
2020/12/23 10:49:23;;;;;;;105.97;55.58;;;;;;;20.61;46.41;98083.31;5038777;28;20040;-81
2020/12/23 10:51:50;;;;;;;124.22;67.03;;;;;;;20.82;44.63;98092.19;5056151;28;20031;-78
2020/12/23 10:54:17;;;;;;;110.20;55.97;;;;;;;20.38;45.97;98098.19;5074621;28;20028;-78
2020/12/23 10:56:42;;;;;;;88.78;48.67;;;;;;;20.81;46.77;98089.59;5056083;28;20039;-79
2020/12/23 10:59:08;;;;;;;88.95;46.90;;;;;;;20.22;46.39;98082.44;5055947;28;20028;-79
2020/12/23 11:01:34;;;;;;;85.65;45.50;;;;;;;19.14;49.26;98083.22;5055761;28;20028;-79
2020/12/23 11:03:59;;;;;;;112.40;64.60;;;;;;;19.31;50.39;98070.88;5056967;28;20475;-80
2020/12/23 11:06:25;;;;;;;118.88;67.95;;;;;;;18.68;53.19;98070.09;5055659;28;20419;-80
2020/12/23 11:08:50;;;;;;;103.30;57.75;;;;;;;19.01;50.56;98069.00;5056068;28;20028;-79
2020/12/23 11:11:16;;;;;;;110.07;61.63;;;;;;;17.99;53.80;98059.81;5055527;28;20465;-79
2020/12/23 11:13:42;;;;;;;94.32;52.50;;;;;;;17.46;54.72;98062.38;5055091;28;20073;-79
2020/12/23 11:16:15;;;;;;;105.60;54.67;;;;;;;16.16;59.34;98053.81;5055746;28;20025;-79